Time;durP1;ratioP1;P1;durP2;ratioP2;P2;SDS_P1;SDS_P2;PMS_P1;PMS_P2;Temp;Humidity;BMP_temperature;BMP_pressure;BME280_temperature;BME280_humidity;BME280_pressure;Samples;Min_cycle;Max_cycle;Signal;HPM_P1;HPM_P2
2021/12/19 00:10:45;;;;;;;;;;;;;;;;;;;;;
2021/12/19 00:13:41;;;;;;;;;;;;;;;;;;;;;
2021/12/19 00:17:04;;;;;;;;;;;;;;;;;;;;;
2021/12/19 00:26:37;;;;;;;;;;;;;;;;;;;;;
2021/12/19 00:28:54;;;;;;;;;;;;;;;;;;;;;
2021/12/19 00:31:27;;;;;;;;;;;7.70;99.90;;;;;;4969159;28;19950;-92
2021/12/19 00:34:26;;;;;;;;;;;;;;;;;;;;;
2021/12/19 00:37:37;;;;;;;;;;;;;;;;;;;;;
2021/12/19 00:41:05;;;;;;;;;;;;;;;;;;;;;
2021/12/19 00:44:05;;;;;;;;;;;;;;;;;;;;;
2021/12/19 00:47:03;;;;;;;;;;;;;;;;;;;;;
2021/12/19 00:50:26;;;;;;;;;;;;;;;;;;;;;
2021/12/19 00:53:21;;;;;;;;;;;;;;;;;;;;;
2021/12/19 01:19:01;;;;;;;;;;;;;;;;;;;;;
2021/12/19 01:22:10;;;;;;;;;;;;;;;;;;;;;
2021/12/19 01:24:51;;;;;;;;;;;;;;;;;;;;;
2021/12/19 01:31:05;;;;;;;;;;;7.60;99.90;;;;;;4858790;29;20056;-92
2021/12/19 01:34:12;;;;;;;;;;;;;;;;;;;;;
2021/12/19 01:43:25;;;;;;;;;;;;;;;;;;;;;
2021/12/19 01:47:07;;;;;;;;;;;7.50;99.90;;;;;;4938785;28;20437;-91
2021/12/19 02:09:03;;;;;;;;;;;7.50;99.90;;;;;;4986143;28;19933;-90
2021/12/19 02:11:52;;;;;;;;;;;7.50;99.90;;;;;;4978793;28;19976;-91
2021/12/19 02:21:09;;;;;;;;;;;;;;;;;;;;;
2021/12/19 02:24:19;;;;;;;;;;;;;;;;;;;;;
2021/12/19 02:27:15;;;;;;;;;;;7.50;99.90;;;;;;4954827;28;19930;-92
2021/12/19 02:56:22;;;;;;;;;;;7.40;99.90;;;;;;4973289;28;20029;-90
2021/12/19 03:08:40;;;;;;;;;;;;;;;;;;;;;
2021/12/19 03:20:55;;;;;;;;;;;;;;;;;;;;;
2021/12/19 03:42:12;;;;;;;;;;;7.20;99.90;;;;;;4924481;29;19926;-91
2021/12/19 03:45:11;;;;;;;;;;;7.20;99.90;;;;;;4961840;28;20290;-90
2021/12/19 03:57:51;;;;;;;;;;;7.10;99.90;;;;;;4967765;28;20020;-90
2021/12/19 04:00:45;;;;;;;;;;;7.10;99.90;;;;;;4966548;28;19925;-92
2021/12/19 04:07:11;;;;;;;;;;;;;;;;;;;;;
2021/12/19 04:29:20;;;;;;;;;;;;;;;;;;;;;
2021/12/19 05:04:34;;;;;;;;;;;;;;;;;;;;;
2021/12/19 05:16:39;;;;;;;;;;;;;;;;;;;;;
2021/12/19 05:47:17;;;;;;;;;;;;;;;;;;;;;
2021/12/19 05:50:09;;;;;;;;;;;7.20;99.90;;;;;;4960909;28;19969;-90
2021/12/19 05:53:01;;;;;;;;;;;;;;;;;;;;;
2021/12/19 05:56:03;;;;;;;;;;;7.20;99.90;;;;;;4963396;28;19926;-91
2021/12/19 06:01:38;;;;;;;;;;;7.20;99.90;;;;;;4955357;28;19934;-90
2021/12/19 06:07:36;;;;;;;;;;;7.30;99.90;;;;;;4976195;28;19937;-92
2021/12/19 06:13:55;;;;;;;;;;;;;;;;;;;;;
2021/12/19 06:17:10;;;;;;;;;;;7.20;99.90;;;;;;4965804;28;20000;-92
2021/12/19 06:19:56;;;;;;;;;;;7.20;99.90;;;;;;4979036;28;20275;-91
2021/12/19 06:25:45;;;;;;;;;;;7.20;99.90;;;;;;4981833;28;19936;-90
2021/12/19 06:28:35;;;;;;;;;;;7.30;99.90;;;;;;4964662;28;20396;-92
2021/12/19 06:31:06;;;;;;;;;;;7.20;99.90;;;;;;4964837;28;20021;-89
2021/12/19 06:33:42;;;;;;;;;;;7.20;99.90;;;;;;4962599;28;20437;-89
2021/12/19 06:39:28;;;;;;;;;;;7.20;99.90;;;;;;4973168;28;19926;-89
2021/12/19 06:41:56;;;;;;;;;;;7.30;99.90;;;;;;4962491;28;19972;-90
2021/12/19 06:44:27;;;;;;;;;;;7.20;99.90;;;;;;4962728;28;19976;-90
2021/12/19 06:46:55;;;;;;;;;;;7.30;99.90;;;;;;4962766;28;19989;-90
2021/12/19 06:49:20;;;;;;;;;;;7.20;99.90;;;;;;4946949;28;19969;-89
2021/12/19 06:51:46;;;;;;;;;;;7.30;99.90;;;;;;4962114;28;20389;-88
2021/12/19 06:54:17;;;;;;;;;;;7.30;99.90;;;;;;4945946;28;19926;-89
2021/12/19 06:56:50;;;;;;;;;;;7.40;99.90;;;;;;4946471;28;20016;-88
2021/12/19 06:59:26;;;;;;;;;;;7.30;99.90;;;;;;4963007;28;19933;-90
2021/12/19 07:02:20;;;;;;;;;;;7.30;99.90;;;;;;4947815;28;19937;-90
2021/12/19 07:04:49;;;;;;;;;;;7.30;99.90;;;;;;4994223;28;20016;-90
2021/12/19 07:07:21;;;;;;;;;;;7.30;99.90;;;;;;4978414;28;19972;-88
2021/12/19 07:09:47;;;;;;;;;;;7.30;99.90;;;;;;4961791;28;19926;-91
2021/12/19 07:12:25;;;;;;;;;;;7.30;99.90;;;;;;4962735;28;19992;-91
2021/12/19 07:14:51;;;;;;;;;;;7.30;99.90;;;;;;4962901;28;19926;-88
2021/12/19 07:17:22;;;;;;;;;;;7.20;99.90;;;;;;4961883;28;19933;-86
2021/12/19 07:19:50;;;;;;;;;;;7.30;99.90;;;;;;4962140;28;20024;-89
2021/12/19 07:22:19;;;;;;;;;;;7.30;99.90;;;;;;4947012;28;19989;-87
2021/12/19 07:24:45;;;;;;;;;;;7.30;99.90;;;;;;4961091;28;20434;-87
2021/12/19 07:27:14;;;;;;;;;;;7.20;99.90;;;;;;4961634;28;20268;-88
2021/12/19 07:29:44;;;;;;;;;;;7.20;99.90;;;;;;4961687;28;19980;-86
2021/12/19 07:32:11;;;;;;;;;;;7.30;99.90;;;;;;4962007;28;19932;-88
2021/12/19 07:34:38;;;;;;;;;;;7.20;99.90;;;;;;4961218;28;20391;-86
2021/12/19 07:37:06;;;;;;;;;;;7.20;99.90;;;;;;4945466;28;20264;-87
2021/12/19 07:42:04;;;;;;;;;;;7.30;99.90;;;;;;4961305;28;20373;-86
2021/12/19 07:44:32;;;;;;;;;;;7.30;99.90;;;;;;4961376;28;19926;-86
2021/12/19 07:47:00;;;;;;;;;;;7.30;99.90;;;;;;4961043;28;19926;-86
2021/12/19 07:49:28;;;;;;;;;;;7.30;99.90;;;;;;4961234;28;19933;-87
2021/12/19 07:51:55;;;;;;;;;;;7.30;99.90;;;;;;4960950;28;20003;-87
2021/12/19 07:54:30;;;;;;;;;;;7.30;99.90;;;;;;4993295;28;19925;-86
2021/12/19 07:56:58;;;;;;;;;;;7.30;99.90;;;;;;4976943;28;20278;-86
2021/12/19 07:59:31;;;;;;;;;;;7.40;99.90;;;;;;4977309;28;19972;-86
2021/12/19 08:01:57;;;;;;;;;;;7.30;99.90;;;;;;4945328;28;20394;-86
2021/12/19 08:04:48;;;;;;;;;;;7.40;99.90;;;;;;4946147;28;19933;-89
2021/12/19 08:07:39;;;;;;;;;;;7.30;99.90;;;;;;4993250;28;19925;-88
2021/12/19 08:12:59;;;;;;;;;;;7.30;99.90;;;;;;4963379;28;19926;-89
2021/12/19 08:15:55;;;;;;;;;;;7.40;99.90;;;;;;4960647;28;20446;-89
2021/12/19 08:18:49;;;;;;;;;;;7.30;99.90;;;;;;4977085;28;19926;-90
2021/12/19 08:21:53;;;;;;;;;;;;;;;;;;;;;
2021/12/19 08:24:52;;;;;;;;;;;7.40;99.90;;;;;;4993867;28;20034;-90
2021/12/19 08:27:45;;;;;;;;;;;7.40;99.90;;;;;;4977168;28;19926;-90
2021/12/19 08:30:42;;;;;;;;;;;7.40;99.90;;;;;;4962773;28;19932;-88
2021/12/19 08:33:46;;;;;;;;;;;7.40;99.90;;;;;;4980518;28;19980;-87
2021/12/19 08:39:32;;;;;;;;;;;7.40;99.90;;;;;;4973475;28;19933;-86
2021/12/19 08:42:13;;;;;;;;;;;7.40;99.90;;;;;;4960984;28;19930;-89
2021/12/19 08:51:32;;;;;;;;;;;7.40;99.90;;;;;;4972801;28;20441;-89
2021/12/19 08:57:28;;;;;;;;;;;;;;;;;;;;;
2021/12/19 09:00:35;;;;;;;;;;;7.40;99.90;;;;;;4975966;28;19925;-89
2021/12/19 09:03:19;;;;;;;;;;;;;;;;;;;;;
2021/12/19 09:06:12;;;;;;;;;;;7.50;99.90;;;;;;4962458;28;19930;-88
2021/12/19 09:08:43;;;;;;;;;;;7.50;99.90;;;;;;4961543;28;19996;-89
2021/12/19 09:11:28;;;;;;;;;;;;;;;;;;;;;
2021/12/19 09:13:54;;;;;;;;;;;7.50;99.90;;;;;;4975396;28;19926;-87
2021/12/19 09:16:27;;;;;;;;;;;7.50;99.90;;;;;;4944247;28;19990;-89
2021/12/19 09:19:06;;;;;;;;;;;7.50;99.90;;;;;;4944937;28;19926;-89
2021/12/19 09:21:44;;;;;;;;;;;7.50;99.90;;;;;;4961994;28;19926;-91
2021/12/19 09:24:23;;;;;;;;;;;7.60;99.90;;;;;;4945699;28;19969;-91
2021/12/19 09:27:00;;;;;;;;;;;7.60;99.90;;;;;;4960786;28;19930;-90
2021/12/19 09:29:59;;;;;;;;;;;;;;;;;;;;;
2021/12/19 09:35:38;;;;;;;;;;;7.70;99.90;;;;;;4960639;28;19952;-89
2021/12/19 09:47:29;;;;;;;;;;;7.60;99.90;;;;;;4961008;28;19930;-90
2021/12/19 09:50:05;;;;;;;;;;;7.70;99.90;;;;;;4996245;28;20016;-88
2021/12/19 09:52:46;;;;;;;;;;;;;;;;;;;;;
2021/12/19 09:55:19;;;;;;;;;;;7.70;99.90;;;;;;4963809;28;19932;-86
2021/12/19 09:57:45;;;;;;;;;;;7.80;99.90;;;;;;4964026;28;19926;-85
2021/12/19 10:00:14;;;;;;;;;;;7.70;99.90;;;;;;4979360;28;19973;-85
2021/12/19 10:02:40;;;;;;;;;;;7.80;99.90;;;;;;4963754;28;19981;-84
2021/12/19 10:05:43;;;;;;;;;;;7.70;99.90;;;;;;4947008;28;19926;-90
2021/12/19 10:08:22;;;;;;;;;;;7.80;99.90;;;;;;4949445;28;20378;-89
2021/12/19 10:11:00;;;;;;;;;;;7.80;99.90;;;;;;4964984;28;20021;-88
2021/12/19 10:13:54;;;;;;;;;;;7.80;99.90;;;;;;4963612;28;20374;-89
2021/12/19 10:20:06;;;;;;;;;;;7.80;99.90;;;;;;4968614;28;19929;-87
2021/12/19 10:23:00;;;;;;;;;;;7.90;99.90;;;;;;4904728;28;20407;-86
2021/12/19 10:25:40;;;;;;;;;;;;;;;;;;;;;
2021/12/19 10:28:28;;;;;;;;;;;7.90;99.90;;;;;;4980337;28;19926;-88
2021/12/19 10:31:04;;;;;;;;;;;7.90;99.90;;;;;;4962469;28;20002;-88
2021/12/19 10:33:42;;;;;;;;;;;7.90;99.90;;;;;;4963975;28;19933;-88
2021/12/19 10:36:10;;;;;;;;;;;7.90;99.90;;;;;;4947586;28;19926;-87
2021/12/19 10:38:41;;;;;;;;;;;7.90;99.90;;;;;;4962968;28;20282;-83
2021/12/19 10:41:13;;;;;;;;;;;7.90;99.90;;;;;;4962207;28;19932;-83
2021/12/19 10:45:29;;;;;;;;;;;7.90;99.90;;;;;;4978389;28;20371;-83
2021/12/19 10:46:46;;;;;;;;;;;7.90;99.90;;;;;;4977917;28;20389;-83
2021/12/19 10:49:24;;;;;;;;;;;7.90;99.90;;;;;;4962392;28;20020;-83
2021/12/19 10:51:50;;;;;;;;;;;7.90;99.90;;;;;;4962472;28;19929;-83
2021/12/19 10:54:18;;;;;;;;;;;7.80;99.90;;;;;;4961362;28;20337;-83
2021/12/19 10:56:43;;;;;;;;;;;7.80;99.90;;;;;;4946831;28;20342;-83
2021/12/19 10:59:10;;;;;;;;;;;7.80;99.90;;;;;;4945861;28;19966;-84
2021/12/19 11:01:36;;;;;;;;;;;7.90;99.90;;;;;;4962189;28;19980;-83
2021/12/19 11:04:17;;;;;;;;;;;7.80;99.90;;;;;;4994457;28;19925;-84
2021/12/19 11:06:46;;;;;;;;;;;7.80;99.90;;;;;;4962335;28;19933;-84
2021/12/19 11:09:21;;;;;;;;;;;7.80;99.90;;;;;;4977794;28;19933;-84
2021/12/19 11:11:50;;;;;;;;;;;7.80;99.90;;;;;;4977819;28;19984;-85
2021/12/19 11:14:33;;;;;;;;;;;7.90;99.90;;;;;;4961874;28;19948;-86
2021/12/19 11:19:53;;;;;;;;;;;7.80;99.90;;;;;;4957454;28;20318;-85
2021/12/19 11:25:11;;;;;;;;;;;7.80;99.90;;;;;;4964744;28;19926;-85
2021/12/19 11:27:41;;;;;;;;;;;7.80;99.90;;;;;;4945597;28;20028;-85
2021/12/19 11:30:07;;;;;;;;;;;7.80;99.90;;;;;;4962026;28;19926;-85
2021/12/19 11:32:48;;;;;;;;;;;7.90;99.90;;;;;;4961229;28;19926;-85
2021/12/19 11:35:20;;;;;;;;;;;7.90;99.90;;;;;;4976989;28;20281;-86
2021/12/19 11:37:51;;;;;;;;;;;7.90;99.90;;;;;;4961587;28;20011;-86
2021/12/19 11:40:20;;;;;;;;;;;7.90;99.90;;;;;;4961353;28;19926;-86
2021/12/19 11:42:54;;;;;;;;;;;7.90;99.90;;;;;;4977416;28;19926;-86
2021/12/19 11:48:14;;;;;;;;;;;8.00;99.90;;;;;;4962932;28;19926;-86
2021/12/19 11:50:49;;;;;;;;;;;8.00;99.90;;;;;;4979145;28;19926;-85
2021/12/19 11:53:14;;;;;;;;;;;8.00;99.90;;;;;;4992957;28;19926;-86
2021/12/19 11:55:41;;;;;;;;;;;8.00;99.90;;;;;;4992181;28;19980;-85
2021/12/19 11:58:12;;;;;;;;;;;8.10;99.90;;;;;;4976555;28;19926;-86
2021/12/19 12:00:47;;;;;;;;;;;8.10;99.90;;;;;;4976487;28;19957;-86
2021/12/19 12:03:12;;;;;;;;;;;8.10;99.90;;;;;;4961914;28;19925;-86
2021/12/19 12:05:38;;;;;;;;;;;8.10;99.90;;;;;;4992895;28;19976;-86
2021/12/19 12:08:04;;;;;;;;;;;8.10;99.90;;;;;;4976876;28;19925;-86
2021/12/19 12:11:07;;;;;;;;;;;8.10;99.90;;;;;;4992639;28;20298;-86
2021/12/19 12:13:34;;;;;;;;;;;8.10;99.90;;;;;;4960467;28;20282;-86
2021/12/19 12:16:11;;;;;;;;;;;8.10;99.90;;;;;;4961410;28;19925;-86
2021/12/19 12:18:40;;;;;;;;;;;8.10;99.90;;;;;;4976514;28;19953;-86
2021/12/19 12:21:26;;;;;;;;;;;8.10;99.90;;;;;;4960884;28;19933;-86
2021/12/19 12:24:02;;;;;;;;;;;8.20;99.90;;;;;;4976929;28;19930;-85
2021/12/19 12:26:36;;;;;;;;;;;8.20;99.90;;;;;;4976730;28;20282;-86
2021/12/19 12:29:02;;;;;;;;;;;8.30;99.90;;;;;;4961607;28;20273;-86
2021/12/19 12:31:27;;;;;;;;;;;8.40;99.90;;;;;;4960096;28;19930;-86
2021/12/19 12:33:53;;;;;;;;;;;8.40;99.90;;;;;;4993725;28;19932;-86
2021/12/19 12:36:19;;;;;;;;;;;8.40;99.90;;;;;;4960181;28;19976;-85
2021/12/19 12:38:51;;;;;;;;;;;8.50;99.90;;;;;;4961064;28;19926;-87
2021/12/19 12:44:05;;;;;;;;;;;8.50;99.90;;;;;;4962283;28;19926;-88
2021/12/19 12:46:48;;;;;;;;;;;;;;;;;;;;;
2021/12/19 12:49:34;;;;;;;;;;;8.50;99.90;;;;;;4961958;28;19930;-87
2021/12/19 12:52:05;;;;;;;;;;;8.40;99.90;;;;;;4961064;28;19926;-87
2021/12/19 12:54:37;;;;;;;;;;;8.30;99.90;;;;;;4959567;28;20298;-88
2021/12/19 12:57:16;;;;;;;;;;;8.30;99.90;;;;;;4960204;28;20009;-87
2021/12/19 12:59:52;;;;;;;;;;;8.30;99.90;;;;;;4977452;28;20387;-88
2021/12/19 13:05:15;;;;;;;;;;;8.30;99.90;;;;;;4936672;28;19933;-89
2021/12/19 13:08:01;;;;;;;;;;;8.30;99.90;;;;;;4961237;28;20012;-88
2021/12/19 13:10:31;;;;;;;;;;;8.20;99.90;;;;;;4966077;28;19933;-91
2021/12/19 13:13:08;;;;;;;;;;;8.30;99.90;;;;;;4965024;28;20259;-89
2021/12/19 13:15:55;;;;;;;;;;;8.20;99.90;;;;;;4964075;28;19933;-89
2021/12/19 13:21:19;;;;;;;;;;;8.20;99.90;;;;;;4955717;28;19926;-88
2021/12/19 13:24:18;;;;;;;;;;;;;;;;;;;;;
2021/12/19 13:26:44;;;;;;;;;;;8.20;99.90;;;;;;4979636;28;19926;-88
2021/12/19 13:29:29;;;;;;;;;;;8.20;99.90;;;;;;4948174;28;19933;-87
2021/12/19 13:32:16;;;;;;;;;;;8.20;99.90;;;;;;4980165;28;19965;-90
2021/12/19 13:35:01;;;;;;;;;;;8.20;99.90;;;;;;4979165;28;20458;-91
2021/12/19 13:37:33;;;;;;;;;;;8.30;99.90;;;;;;4963899;28;19925;-88
2021/12/19 13:40:07;;;;;;;;;;;8.20;99.90;;;;;;4965124;28;19932;-87
2021/12/19 13:42:39;;;;;;;;;;;8.20;99.90;;;;;;4964595;28;19926;-88
2021/12/19 13:45:34;;;;;;;;;;;8.20;99.90;;;;;;4963898;28;19926;-89
2021/12/19 13:48:03;;;;;;;;;;;8.20;99.90;;;;;;4979725;28;19926;-89
2021/12/19 13:50:37;;;;;;;;;;;8.20;99.90;;;;;;4963386;28;19930;-88
2021/12/19 13:53:23;;;;;;;;;;;8.20;99.90;;;;;;4980570;28;19976;-87
2021/12/19 13:56:12;;;;;;;;;;;8.20;99.90;;;;;;4965147;28;20012;-87
2021/12/19 13:58:38;;;;;;;;;;;8.30;99.90;;;;;;4972319;28;19926;-87
2021/12/19 14:01:20;;;;;;;;;;;8.20;99.90;;;;;;4962939;28;19926;-87
2021/12/19 14:03:54;;;;;;;;;;;8.20;99.90;;;;;;4962909;28;19969;-87
2021/12/19 14:06:35;;;;;;;;;;;8.20;99.90;;;;;;4964220;28;19933;-87
2021/12/19 14:09:06;;;;;;;;;;;8.30;99.90;;;;;;4964048;28;19976;-88
2021/12/19 14:11:42;;;;;;;;;;;;;;;;;;;;;
2021/12/19 14:14:31;;;;;;;;;;;8.30;99.90;;;;;;4963883;28;19929;-88
2021/12/19 14:17:06;;;;;;;;;;;8.30;99.90;;;;;;4969012;28;20366;-87
2021/12/19 14:19:40;;;;;;;;;;;8.30;99.90;;;;;;4977848;28;19925;-87
2021/12/19 14:22:13;;;;;;;;;;;8.30;99.90;;;;;;4964030;28;19953;-86
2021/12/19 14:24:52;;;;;;;;;;;8.30;99.90;;;;;;4978558;28;19926;-87
2021/12/19 14:27:29;;;;;;;;;;;8.30;99.90;;;;;;4962853;28;19981;-87
2021/12/19 14:30:02;;;;;;;;;;;8.30;99.90;;;;;;4978751;28;20016;-87
2021/12/19 14:32:32;;;;;;;;;;;8.30;99.90;;;;;;4962608;28;20386;-88
2021/12/19 14:34:58;;;;;;;;;;;8.30;99.90;;;;;;4962124;28;19973;-88
2021/12/19 14:37:27;;;;;;;;;;;8.20;99.90;;;;;;4962503;28;19926;-87
2021/12/19 14:40:16;;;;;;;;;;;8.20;99.90;;;;;;4962207;28;19932;-88
2021/12/19 14:42:45;;;;;;;;;;;8.20;99.90;;;;;;4984107;28;19926;-87
2021/12/19 14:45:16;;;;;;;;;;;8.20;99.90;;;;;;4962421;28;19929;-87
2021/12/19 14:47:45;;;;;;;;;;;8.20;99.90;;;;;;4962154;28;20267;-87
2021/12/19 14:50:37;;;;;;;;;;;8.10;99.90;;;;;;4962391;28;19925;-87
2021/12/19 14:53:12;;;;;;;;;;;8.10;99.90;;;;;;4975863;28;19972;-87
2021/12/19 14:55:47;;;;;;;;;;;8.10;99.90;;;;;;4977744;28;19972;-87
2021/12/19 14:58:15;;;;;;;;;;;8.10;99.90;;;;;;4978658;28;19926;-88
2021/12/19 15:00:41;;;;;;;;;;;8.10;99.90;;;;;;4961818;28;20020;-87
2021/12/19 15:03:10;;;;;;;;;;;8.00;99.90;;;;;;4978453;28;20345;-87
2021/12/19 15:05:43;;;;;;;;;;;8.00;99.90;;;;;;4946743;28;19926;-87
2021/12/19 15:08:14;;;;;;;;;;;8.00;99.90;;;;;;4994279;28;19973;-87
2021/12/19 15:10:49;;;;;;;;;;;8.00;99.90;;;;;;4979410;28;20326;-87
2021/12/19 15:13:20;;;;;;;;;;;7.90;99.90;;;;;;4961288;28;19926;-87
2021/12/19 15:15:45;;;;;;;;;;;7.90;99.90;;;;;;4962053;28;19925;-88
2021/12/19 15:18:11;;;;;;;;;;;7.90;99.90;;;;;;4961357;28;19926;-87
2021/12/19 15:20:37;;;;;;;;;;;7.90;99.90;;;;;;4961730;28;19926;-87
2021/12/19 15:23:21;;;;;;;;;;;7.90;99.90;;;;;;4945396;28;20021;-87
2021/12/19 15:25:47;;;;;;;;;;;7.90;99.90;;;;;;4978256;28;19929;-87
2021/12/19 15:29:08;;;;;;;;;;;7.90;99.90;;;;;;4978604;28;19926;-96
2021/12/19 15:31:25;;;;;;;;;;;7.80;99.90;;;;;;4962947;28;19981;-86
2021/12/19 15:33:51;;;;;;;;;;;7.70;99.90;;;;;;4961909;28;19925;-93
2021/12/19 15:36:24;;;;;;;;;;;7.80;99.90;;;;;;4962451;28;20017;-92
2021/12/19 15:39:01;;;;;;;;;;;7.70;99.90;;;;;;4973826;28;19926;-94
2021/12/19 15:41:57;;;;;;;;;;;7.80;99.90;;;;;;4949125;28;20472;-96
2021/12/19 15:44:35;;;;;;;;;;;7.80;99.90;;;;;;4965428;28;20374;-86
2021/12/19 15:47:17;;;;;;;;;;;7.70;99.90;;;;;;4947624;28;20094;-90
2021/12/19 15:49:48;;;;;;;;;;;7.70;99.90;;;;;;4950745;28;20367;-94
2021/12/19 15:52:23;;;;;;;;;;;7.70;99.90;;;;;;4962788;28;19932;-89
2021/12/19 15:54:49;;;;;;;;;;;7.70;99.90;;;;;;4960873;28;19932;-92
2021/12/19 15:57:17;;;;;;;;;;;7.60;99.90;;;;;;4944228;28;20370;-86
2021/12/19 15:59:45;;;;;;;;;;;7.60;99.90;;;;;;4944752;28;20020;-87
2021/12/19 16:02:15;;;;;;;;;;;7.60;99.90;;;;;;4960878;28;19926;-84
2021/12/19 16:05:03;;;;;;;;;;;7.60;99.90;;;;;;4961353;28;19984;-86
2021/12/19 16:07:36;;;;;;;;;;;7.50;99.90;;;;;;4993167;28;19929;-86
2021/12/19 16:10:03;;;;;;;;;;;7.60;99.90;;;;;;4960736;28;19926;-86
2021/12/19 16:12:32;;;;;;;;;;;7.60;99.90;;;;;;4960907;28;20028;-86
2021/12/19 16:14:57;;;;;;;;;;;7.60;99.90;;;;;;4944201;28;19925;-86
2021/12/19 16:17:23;;;;;;;;;;;7.60;99.90;;;;;;4944796;28;19980;-86
2021/12/19 16:19:48;;;;;;;;;;;7.60;99.90;;;;;;4944147;28;19925;-86
2021/12/19 16:22:14;;;;;;;;;;;7.60;99.90;;;;;;4944869;28;20386;-87
2021/12/19 16:24:40;;;;;;;;;;;7.60;99.90;;;;;;4944773;28;19926;-88
2021/12/19 16:27:08;;;;;;;;;;;7.60;99.90;;;;;;4959900;28;19926;-87
2021/12/19 16:29:36;;;;;;;;;;;7.50;99.90;;;;;;4960539;28;19926;-87
2021/12/19 16:32:02;;;;;;;;;;;7.50;99.90;;;;;;4960518;28;19926;-87
2021/12/19 16:34:27;;;;;;;;;;;7.50;99.90;;;;;;4960486;28;19937;-87
2021/12/19 16:36:53;;;;;;;;;;;7.50;99.90;;;;;;4959970;28;19926;-87
2021/12/19 16:39:21;;;;;;;;;;;7.50;99.90;;;;;;4960420;28;20015;-87
2021/12/19 16:41:48;;;;;;;;;;;7.50;99.90;;;;;;4976433;28;19933;-86
2021/12/19 16:44:18;;;;;;;;;;;7.50;99.90;;;;;;4960078;28;20290;-87
2021/12/19 16:46:44;;;;;;;;;;;7.50;99.90;;;;;;4960057;28;19926;-87
2021/12/19 16:49:10;;;;;;;;;;;7.40;99.90;;;;;;4960105;28;19926;-88
2021/12/19 16:51:35;;;;;;;;;;;7.40;99.90;;;;;;4944279;28;19926;-84
2021/12/19 16:54:01;;;;;;;;;;;7.50;99.90;;;;;;4992378;28;19934;-85
2021/12/19 16:56:31;;;;;;;;;;;7.50;99.90;;;;;;4960317;28;19981;-85
2021/12/19 16:58:59;;;;;;;;;;;7.50;99.90;;;;;;4975851;28;20004;-85
2021/12/19 17:01:27;;;;;;;;;;;7.50;99.90;;;;;;4944669;28;19926;-86
2021/12/19 17:03:55;;;;;;;;;;;7.50;99.90;;;;;;4976095;28;19926;-85
2021/12/19 17:06:20;;;;;;;;;;;7.50;99.90;;;;;;4960676;28;20248;-84
2021/12/19 17:08:46;;;;;;;;;;;7.60;99.90;;;;;;4959834;28;19930;-85
2021/12/19 17:11:14;;;;;;;;;;;7.60;99.90;;;;;;4960054;28;19926;-85
2021/12/19 17:13:44;;;;;;;;;;;7.50;99.90;;;;;;4944262;28;19926;-85
2021/12/19 17:16:16;;;;;;;;;;;7.60;99.90;;;;;;4944344;28;19933;-85
2021/12/19 17:18:42;;;;;;;;;;;7.50;99.90;;;;;;4976875;28;19932;-85
2021/12/19 17:21:08;;;;;;;;;;;7.50;99.90;;;;;;4975748;28;19934;-85
2021/12/19 17:23:33;;;;;;;;;;;7.50;99.90;;;;;;4960040;28;20317;-84
2021/12/19 17:25:59;;;;;;;;;;;7.60;99.90;;;;;;4975606;28;19926;-85
2021/12/19 17:28:25;;;;;;;;;;;7.60;99.90;;;;;;4960292;28;20041;-84
2021/12/19 17:30:55;;;;;;;;;;;7.60;99.90;;;;;;4961041;28;19926;-86
2021/12/19 17:33:27;;;;;;;;;;;7.60;99.90;;;;;;4976680;28;20270;-86
2021/12/19 17:35:57;;;;;;;;;;;7.60;99.90;;;;;;4976160;28;20294;-86
2021/12/19 17:38:25;;;;;;;;;;;7.60;99.90;;;;;;4960409;28;19933;-86
2021/12/19 17:40:56;;;;;;;;;;;7.60;99.90;;;;;;4960338;28;19925;-86
2021/12/19 17:43:23;;;;;;;;;;;7.70;99.90;;;;;;4960577;28;19925;-85
2021/12/19 17:45:56;;;;;;;;;;;7.70;99.90;;;;;;4959932;28;20293;-86
2021/12/19 17:48:24;;;;;;;;;;;7.80;99.90;;;;;;4960249;28;20346;-86
2021/12/19 17:50:52;;;;;;;;;;;7.80;99.90;;;;;;4976292;28;19984;-87
2021/12/19 17:53:19;;;;;;;;;;;7.80;99.90;;;;;;4975716;28;19941;-85
2021/12/19 17:55:47;;;;;;;;;;;7.80;99.90;;;;;;4963364;28;19935;-85
2021/12/19 17:58:13;;;;;;;;;;;7.80;99.90;;;;;;4963568;28;19926;-87
2021/12/19 18:00:51;;;;;;;;;;;;;;;;;;;;;
2021/12/19 18:03:30;;;;;;;;;;;7.90;99.90;;;;;;4965790;28;19977;-87
2021/12/19 18:06:12;;;;;;;;;;;7.90;99.90;;;;;;4963889;28;20017;-87
2021/12/19 18:08:43;;;;;;;;;;;7.80;99.90;;;;;;4948280;28;20460;-87
2021/12/19 18:11:09;;;;;;;;;;;7.80;99.90;;;;;;4963144;28;20290;-87
2021/12/19 18:13:47;;;;;;;;;;;7.80;99.90;;;;;;4962851;28;20374;-86
2021/12/19 18:16:30;;;;;;;;;;;7.80;99.90;;;;;;4964119;28;19926;-87
2021/12/19 18:18:59;;;;;;;;;;;7.80;99.90;;;;;;4964396;28;19926;-89
2021/12/19 18:21:42;;;;;;;;;;;;;;;;;;;;;
2021/12/19 18:24:11;;;;;;;;;;;7.70;99.90;;;;;;4964088;28;19930;-88
2021/12/19 18:26:44;;;;;;;;;;;7.70;99.90;;;;;;4947108;28;19926;-88
2021/12/19 18:29:28;;;;;;;;;;;;;;;;;;;;;
2021/12/19 18:32:01;;;;;;;;;;;7.70;99.90;;;;;;4964345;28;20323;-89
2021/12/19 18:34:46;;;;;;;;;;;7.60;99.90;;;;;;4963314;28;20374;-88
2021/12/19 18:37:15;;;;;;;;;;;7.60;99.90;;;;;;4980514;28;20020;-87
2021/12/19 18:39:46;;;;;;;;;;;7.60;99.90;;;;;;4963244;28;19933;-86
2021/12/19 18:42:20;;;;;;;;;;;7.60;99.90;;;;;;4962245;28;19932;-87
2021/12/19 18:45:10;;;;;;;;;;;;;;;;;;;;;
2021/12/19 18:55:57;;;;;;;;;;;7.60;99.90;;;;;;4962732;28;20382;-86
2021/12/19 18:58:30;;;;;;;;;;;7.50;99.90;;;;;;4963874;28;20355;-87
2021/12/19 19:01:00;;;;;;;;;;;7.50;99.90;;;;;;4963028;28;19976;-88
2021/12/19 19:03:53;;;;;;;;;;;7.50;99.90;;;;;;4962671;28;20313;-87
2021/12/19 19:06:26;;;;;;;;;;;7.50;99.90;;;;;;4963477;28;20293;-87
2021/12/19 19:09:05;;;;;;;;;;;7.50;99.90;;;;;;4947578;28;19977;-87
2021/12/19 19:11:31;;;;;;;;;;;7.50;99.90;;;;;;4946456;28;19926;-87
2021/12/19 19:14:01;;;;;;;;;;;7.50;99.90;;;;;;4946098;28;20445;-87
2021/12/19 19:16:34;;;;;;;;;;;7.50;99.90;;;;;;4961859;28;19926;-87
2021/12/19 19:19:08;;;;;;;;;;;7.50;99.90;;;;;;4962079;28;20005;-87
2021/12/19 19:22:03;;;;;;;;;;;7.40;99.90;;;;;;4962327;28;19933;-88
2021/12/19 19:24:29;;;;;;;;;;;7.40;99.90;;;;;;4964541;28;19930;-86
2021/12/19 19:27:20;;;;;;;;;;;7.40;99.90;;;;;;4945855;28;19926;-91
2021/12/19 19:36:14;;;;;;;;;;;7.40;99.90;;;;;;4908645;29;20017;-95
2021/12/19 19:41:51;;;;;;;;;;;;;;;;;;;;;
2021/12/19 19:53:10;;;;;;;;;;;7.40;99.90;;;;;;5044226;28;19910;-95
2021/12/19 19:55:52;;;;;;;;;;;;;;;;;;;;;
2021/12/19 19:58:27;;;;;;;;;;;7.40;99.90;;;;;;5019394;28;19932;-92
2021/12/19 20:01:18;;;;;;;;;;;7.40;99.90;;;;;;4986115;28;19925;-94
2021/12/19 20:03:47;;;;;;;;;;;7.40;99.90;;;;;;4991281;28;19925;-93
2021/12/19 20:06:33;;;;;;;;;;;;;;;;;;;;;
2021/12/19 20:09:08;;;;;;;;;;;7.40;99.90;;;;;;5002669;28;19929;-93
2021/12/19 20:12:03;;;;;;;;;;;7.40;99.90;;;;;;5001767;28;19935;-90
2021/12/19 20:14:49;;;;;;;;;;;7.40;99.90;;;;;;4985473;28;19980;-90
2021/12/19 20:24:05;;;;;;;;;;;;;;;;;;;;;
2021/12/19 20:32:48;;;;;;;;;;;7.30;99.90;;;;;;4991061;28;19957;-92
2021/12/19 20:35:46;;;;;;;;;;;;;;;;;;;;;
2021/12/19 20:42:37;;;;;;;;;;;;;;;;;;;;;
2021/12/19 20:49:16;;;;;;;;;;;;;;;;;;;;;
2021/12/19 20:55:43;;;;;;;;;;;;;;;;;;;;;
2021/12/19 21:02:13;;;;;;;;;;;7.20;99.90;;;;;;4925755;28;19965;-92
2021/12/19 21:04:51;;;;;;;;;;;7.20;99.90;;;;;;4975815;28;20044;-91
2021/12/19 21:08:00;;;;;;;;;;;7.20;99.90;;;;;;4979228;28;19926;-95
2021/12/19 21:13:49;;;;;;;;;;;7.20;99.90;;;;;;4989534;28;19948;-92
2021/12/19 21:19:37;;;;;;;;;;;;;;;;;;;;;
2021/12/19 21:22:04;;;;;;;;;;;7.10;99.90;;;;;;5002486;28;19987;-92
2021/12/19 21:24:33;;;;;;;;;;;7.10;99.90;;;;;;5003720;28;19932;-85
2021/12/19 21:26:59;;;;;;;;;;;7.10;99.90;;;;;;4982909;28;19925;-86
2021/12/19 21:29:25;;;;;;;;;;;7.10;99.90;;;;;;5016940;28;19932;-86
2021/12/19 21:31:57;;;;;;;;;;;7.10;99.90;;;;;;4987280;28;19925;-86
2021/12/19 21:34:30;;;;;;;;;;;7.10;99.90;;;;;;5002771;28;19929;-86
2021/12/19 21:39:43;;;;;;;;;;;7.00;99.90;;;;;;5004747;28;19976;-86
2021/12/19 21:42:09;;;;;;;;;;;7.00;99.90;;;;;;4986535;28;19979;-86
2021/12/19 21:44:43;;;;;;;;;;;7.00;99.90;;;;;;5002389;28;19948;-86
2021/12/19 21:47:11;;;;;;;;;;;7.00;99.90;;;;;;5003391;28;19929;-86
2021/12/19 21:49:39;;;;;;;;;;;7.00;99.90;;;;;;5001956;28;19952;-86
2021/12/19 21:52:09;;;;;;;;;;;7.00;99.90;;;;;;4986155;28;19929;-86
2021/12/19 21:54:37;;;;;;;;;;;7.00;99.90;;;;;;4985926;28;19971;-86
2021/12/19 21:57:03;;;;;;;;;;;7.00;99.90;;;;;;5002602;28;19932;-86
2021/12/19 21:59:29;;;;;;;;;;;7.00;99.90;;;;;;4985363;28;20301;-85
2021/12/19 22:01:54;;;;;;;;;;;7.00;99.90;;;;;;5002291;28;20266;-86
2021/12/19 22:04:20;;;;;;;;;;;6.90;99.90;;;;;;4985782;28;19925;-86
2021/12/19 22:06:46;;;;;;;;;;;6.90;99.90;;;;;;4985129;28;20417;-86
2021/12/19 22:09:15;;;;;;;;;;;6.90;99.90;;;;;;4986557;28;19964;-86
2021/12/19 22:11:51;;;;;;;;;;;6.90;99.90;;;;;;4985625;28;20321;-86
2021/12/19 22:17:03;;;;;;;;;;;6.80;99.90;;;;;;5003998;28;19979;-86
2021/12/19 22:19:29;;;;;;;;;;;6.80;99.90;;;;;;4985986;28;19983;-86
2021/12/19 22:21:57;;;;;;;;;;;6.80;99.90;;;;;;4986455;28;19932;-86
2021/12/19 22:24:23;;;;;;;;;;;6.80;99.90;;;;;;5001169;28;19925;-86
2021/12/19 22:26:49;;;;;;;;;;;6.80;99.90;;;;;;4985319;28;19926;-86
2021/12/19 22:29:17;;;;;;;;;;;6.80;99.90;;;;;;5001739;28;19979;-86
2021/12/19 22:31:43;;;;;;;;;;;6.80;99.90;;;;;;5017198;28;19929;-86